Time;durP1;ratioP1;P1;durP2;ratioP2;P2;SDS_P1;SDS_P2;PMS_P1;PMS_P2;Temp;Humidity;BMP_temperature;BMP_pressure;BME280_temperature;BME280_humidity;BME280_pressure;Samples;Min_cycle;Max_cycle;Signal;HPM_P1;HPM_P2
2024/01/02 00:01:06;;;;;;;;;;;;;;;;;;5118192;27;19973;-79
2024/01/02 00:03:35;;;;;;;;;;;;;;;;;;5105224;27;19965;-77
2024/01/02 00:06:01;;;;;;;;;;;;;;;;;;5083236;27;19931;-78
2024/01/02 00:08:28;;;;;;;;;;;;;;;;;;5102330;27;19930;-77
2024/01/02 00:10:54;;;;;;;;;;;;;;;;;;5097920;28;20515;-78
2024/01/02 00:13:21;;;;;;;;;;;;;;;;;;5124027;27;20026;-78
2024/01/02 00:15:48;;;;;;;;;;;;;;;;;;5104053;28;19934;-79
2024/01/02 00:18:14;;;;;;;;;;;;;;;;;;5100195;27;20009;-78
2024/01/02 00:20:41;;;;;;;;;;;;;;;;;;5100210;27;19931;-78
2024/01/02 00:23:07;;;;;;;;;;;;;;;;;;5114077;27;19930;-79
2024/01/02 00:25:34;;;;;;;;;;;;;;;;;;5101855;27;19955;-78
2024/01/02 00:28:01;;;;;;;;;;;;;;;;;;5101170;28;20555;-79
2024/01/02 00:30:31;;;;;;;;;;;;;;;;;;5116667;27;19928;-80
2024/01/02 00:32:58;;;;;;;;;;;;;;;;;;5098153;28;19928;-78
2024/01/02 00:35:24;;;;;;;;;;;;;;;;;;5118881;27;19928;-78
2024/01/02 00:37:51;;;;;;;;;;;;;;;;;;5118356;27;19988;-78
2024/01/02 00:40:18;;;;;;;;;;;;;;;;;;5102373;28;19935;-79
2024/01/02 00:42:45;;;;;;;;;;;;;;;;;;5097215;28;19972;-78
2024/01/02 00:45:11;;;;;;;;;;;;;;;;;;5084163;28;19935;-79
2024/01/02 00:47:38;;;;;;;;;;;;;;;;;;5119703;27;20622;-81
2024/01/02 00:50:04;;;;;;;;;;;;;;;;;;5098135;28;19969;-77
2024/01/02 00:52:31;;;;;;;;;;;;;;;;;;5079422;28;20342;-78
2024/01/02 00:54:57;;;;;;;;;;;;;;;;;;5096337;27;20014;-78
2024/01/02 00:57:25;;;;;;;;;;;;;;;;;;5082491;28;20010;-80
2024/01/02 00:59:52;;;;;;;;;;;;;;;;;;5117084;27;20014;-80
2024/01/02 01:02:19;;;;;;;;;;;;;;;;;;5099482;27;19927;-79
2024/01/02 01:04:48;;;;;;;;;;;;;;;;;;5115060;27;19924;-78
2024/01/02 01:07:14;;;;;;;;;;;;;;;;;;5117747;28;19924;-80
2024/01/02 01:09:41;;;;;;;;;;;;;;;;;;5101323;28;19930;-80
2024/01/02 01:12:07;;;;;;;;;;;;;;;;;;5099524;27;20322;-80
2024/01/02 01:14:33;;;;;;;;;;;;;;;;;;5119673;27;19923;-79
2024/01/02 01:17:00;;;;;;;;;;;;;;;;;;5098187;28;19963;-80
2024/01/02 01:19:26;;;;;;;;;;;;;;;;;;5095899;28;19928;-81
2024/01/02 01:21:53;;;;;;;;;;;;;;;;;;5100777;28;20315;-80
2024/01/02 01:24:19;;;;;;;;;;;;;;;;;;5114109;28;19930;-81
2024/01/02 01:26:46;;;;;;;;;;;;;;;;;;5076230;28;20384;-81
2024/01/02 01:29:12;;;;;;;;;;;;;;;;;;5077739;28;19924;-78
2024/01/02 01:31:39;;;;;;;;;;;;;;;;;;5103677;28;20507;-80
2024/01/02 01:34:05;;;;;;;;;;;;;;;;;;5086820;28;19945;-80
2024/01/02 01:36:32;;;;;;;;;;;;;;;;;;5097980;28;19980;-80
2024/01/02 01:38:58;;;;;;;;;;;;;;;;;;5082281;28;19967;-81
2024/01/02 01:41:24;;;;;;;;;;;;;;;;;;5118132;28;19934;-79
2024/01/02 01:43:51;;;;;;;;;;;;;;;;;;5100250;28;19928;-79
2024/01/02 01:46:17;;;;;;;;;;;;;;;;;;5082799;28;19954;-78
2024/01/02 01:48:44;;;;;;;;;;;;;;;;;;5097327;28;19932;-80
2024/01/02 01:51:10;;;;;;;;;;;;;;;;;;5078650;28;19927;-80
2024/01/02 01:53:37;;;;;;;;;;;;;;;;;;5099765;28;20026;-80
2024/01/02 01:56:03;;;;;;;;;;;;;;;;;;5120371;28;19923;-81
2024/01/02 01:58:30;;;;;;;;;;;;;;;;;;5094652;28;19923;-80
2024/01/02 02:00:56;;;;;;;;;;;;;;;;;;5085480;27;20143;-81
2024/01/02 02:03:23;;;;;;;;;;;;;;;;;;5104813;27;19928;-81
2024/01/02 02:05:50;;;;;;;;;;;;;;;;;;5118365;27;19934;-81
2024/01/02 02:08:16;;;;;;;;;;;;;;;;;;5118204;27;19924;-81
2024/01/02 02:10:43;;;;;;;;;;;;;;;;;;5080931;27;19928;-81
2024/01/02 02:13:09;;;;;;;;;;;;;;;;;;5108491;27;19923;-81
2024/01/02 02:15:40;;;;;;;;;;;;;;;;;;5087233;28;19963;-81
2024/01/02 02:18:08;;;;;;;;;;;;;;;;;;5085399;28;19931;-81
2024/01/02 02:20:34;;;;;;;;;;;;;;;;;;5118972;27;19924;-82
2024/01/02 02:23:01;;;;;;;;;;;;;;;;;;5105163;28;20279;-81
2024/01/02 02:25:27;;;;;;;;;;;;;;;;;;5100705;28;19927;-81
2024/01/02 02:27:54;;;;;;;;;;;;;;;;;;5084405;27;19927;-81
2024/01/02 02:30:20;;;;;;;;;;;;;;;;;;5103985;28;19924;-81
2024/01/02 02:32:47;;;;;;;;;;;;;;;;;;5100646;28;20023;-79
2024/01/02 02:35:13;;;;;;;;;;;;;;;;;;5083058;28;20019;-81
2024/01/02 02:37:40;;;;;;;;;;;;;;;;;;5116968;27;19935;-81
2024/01/02 02:40:06;;;;;;;;;;;;;;;;;;5119620;27;20432;-82
2024/01/02 02:42:32;;;;;;;;;;;;;;;;;;5101061;27;19970;-82
2024/01/02 02:44:59;;;;;;;;;;;;;;;;;;5083110;27;20388;-79
2024/01/02 02:47:25;;;;;;;;;;;;;;;;;;5103055;27;19978;-79
2024/01/02 02:49:52;;;;;;;;;;;;;;;;;;5107712;28;19943;-79
2024/01/02 02:52:19;;;;;;;;;;;;;;;;;;5099693;28;19927;-81
2024/01/02 02:54:45;;;;;;;;;;;;;;;;;;5099088;27;20019;-81
2024/01/02 02:57:12;;;;;;;;;;;;;;;;;;5118213;27;19928;-79
2024/01/02 02:59:38;;;;;;;;;;;;;;;;;;5097863;28;19930;-79
2024/01/02 03:02:05;;;;;;;;;;;;;;;;;;5097943;28;19977;-84
2024/01/02 03:04:31;;;;;;;;;;;;;;;;;;5100718;28;19931;-83
2024/01/02 03:06:57;;;;;;;;;;;;;;;;;;5096529;28;19974;-81
2024/01/02 03:09:24;;;;;;;;;;;;;;;;;;5098264;27;19953;-83
2024/01/02 03:11:50;;;;;;;;;;;;;;;;;;5122302;27;19924;-81
2024/01/02 03:14:17;;;;;;;;;;;;;;;;;;5101466;28;19928;-83
2024/01/02 03:16:43;;;;;;;;;;;;;;;;;;5098762;28;19924;-81
2024/01/02 03:19:09;;;;;;;;;;;;;;;;;;5115509;27;20380;-82
2024/01/02 03:21:36;;;;;;;;;;;;;;;;;;5094709;28;19959;-80
2024/01/02 03:24:03;;;;;;;;;;;;;;;;;;5117712;27;20368;-85
2024/01/02 03:26:29;;;;;;;;;;;;;;;;;;5106902;27;19992;-82
2024/01/02 03:28:56;;;;;;;;;;;;;;;;;;5106593;27;19923;-85
2024/01/02 03:31:22;;;;;;;;;;;;;;;;;;5101498;28;19972;-83
2024/01/02 03:33:49;;;;;;;;;;;;;;;;;;5098399;28;20380;-86
2024/01/02 03:36:15;;;;;;;;;;;;;;;;;;5096072;28;19997;-83
2024/01/02 03:38:42;;;;;;;;;;;;;;;;;;5088234;28;19931;-81
2024/01/02 03:41:08;;;;;;;;;;;;;;;;;;5103501;27;19927;-82
2024/01/02 03:43:34;;;;;;;;;;;;;;;;;;5120475;27;19935;-85
2024/01/02 03:46:01;;;;;;;;;;;;;;;;;;5101343;27;19976;-83
2024/01/02 03:48:27;;;;;;;;;;;;;;;;;;5109201;27;19927;-82
2024/01/02 03:50:54;;;;;;;;;;;;;;;;;;5101795;27;19924;-83
2024/01/02 03:53:20;;;;;;;;;;;;;;;;;;5103199;28;19928;-83
2024/01/02 03:55:46;;;;;;;;;;;;;;;;;;5079293;28;19935;-84
2024/01/02 03:58:13;;;;;;;;;;;;;;;;;;5116772;27;19963;-85
2024/01/02 04:00:39;;;;;;;;;;;;;;;;;;5103637;28;19947;-81
2024/01/02 04:03:06;;;;;;;;;;;;;;;;;;5099268;27;19932;-85
2024/01/02 04:05:33;;;;;;;;;;;;;;;;;;5096527;28;20031;-84
2024/01/02 04:07:59;;;;;;;;;;;;;;;;;;5110457;27;19924;-85
2024/01/02 04:10:26;;;;;;;;;;;;;;;;;;5102943;27;20042;-84
2024/01/02 04:12:52;;;;;;;;;;;;;;;;;;5124262;27;19934;-84
2024/01/02 04:15:19;;;;;;;;;;;;;;;;;;5113175;27;19927;-85
2024/01/02 04:17:45;;;;;;;;;;;;;;;;;;5103205;28;20791;-84
2024/01/02 04:20:12;;;;;;;;;;;;;;;;;;5104695;27;19928;-84
2024/01/02 04:22:39;;;;;;;;;;;;;;;;;;5108006;28;20022;-84
2024/01/02 04:25:06;;;;;;;;;;;;;;;;;;5106357;28;19924;-85
2024/01/02 04:27:32;;;;;;;;;;;;;;;;;;5125027;27;19938;-85
2024/01/02 04:29:59;;;;;;;;;;;;;;;;;;5090742;27;19924;-86
2024/01/02 04:32:25;;;;;;;;;;;;;;;;;;5114727;28;20354;-84
2024/01/02 04:34:52;;;;;;;;;;;;;;;;;;5106616;28;19953;-85
2024/01/02 04:37:18;;;;;;;;;;;;;;;;;;5104163;28;19932;-83
2024/01/02 04:39:47;;;;;;;;;;;;;;;;;;5109797;27;20030;-85
2024/01/02 04:42:14;;;;;;;;;;;;;;;;;;5104926;28;19962;-85
2024/01/02 04:44:40;;;;;;;;;;;;;;;;;;5128184;27;19923;-85
2024/01/02 04:47:07;;;;;;;;;;;;;;;;;;5124272;27;19923;-84
2024/01/02 04:49:33;;;;;;;;;;;;;;;;;;5101832;28;19923;-86
2024/01/02 04:52:00;;;;;;;;;;;;;;;;;;5118027;27;19927;-85
2024/01/02 04:54:26;;;;;;;;;;;;;;;;;;5104664;28;19923;-84
2024/01/02 04:56:54;;;;;;;;;;;;;;;;;;5120754;27;19974;-84
2024/01/02 04:59:20;;;;;;;;;;;;;;;;;;5105382;27;20026;-84
2024/01/02 05:01:47;;;;;;;;;;;;;;;;;;5118616;27;20367;-85
2024/01/02 05:04:13;;;;;;;;;;;;;;;;;;5086653;28;20574;-84
2024/01/02 05:06:39;;;;;;;;;;;;;;;;;;5103660;28;19924;-84
2024/01/02 05:09:08;;;;;;;;;;;;;;;;;;5118960;28;20337;-86
2024/01/02 05:11:35;;;;;;;;;;;;;;;;;;5097417;28;19924;-84
2024/01/02 05:14:01;;;;;;;;;;;;;;;;;;5093729;28;19966;-85
2024/01/02 05:16:28;;;;;;;;;;;;;;;;;;5091320;28;19934;-84
2024/01/02 05:18:55;;;;;;;;;;;;;;;;;;5101771;28;19924;-85
2024/01/02 05:21:21;;;;;;;;;;;;;;;;;;5125042;28;20383;-84
2024/01/02 05:23:48;;;;;;;;;;;;;;;;;;5096656;28;19946;-83
2024/01/02 05:26:14;;;;;;;;;;;;;;;;;;5102208;28;19966;-76
2024/01/02 05:28:41;;;;;;;;;;;;;;;;;;5098393;28;19930;-75
2024/01/02 05:31:07;;;;;;;;;;;;;;;;;;5112738;28;20020;-76
2024/01/02 05:33:34;;;;;;;;;;;;;;;;;;5114895;28;19981;-77
2024/01/02 05:36:00;;;;;;;;;;;;;;;;;;5121790;27;19993;-79
2024/01/02 05:38:26;;;;;;;;;;;;;;;;;;5101565;27;19927;-78
2024/01/02 05:40:53;;;;;;;;;;;;;;;;;;5099619;27;20303;-76
2024/01/02 05:43:19;;;;;;;;;;;;;;;;;;5082087;27;20372;-77
2024/01/02 05:45:49;;;;;;;;;;;;;;;;;;5103402;27;20024;-76
2024/01/02 05:48:15;;;;;;;;;;;;;;;;;;5102189;28;19931;-77
2024/01/02 05:50:42;;;;;;;;;;;;;;;;;;5100296;27;19924;-77
2024/01/02 05:53:11;;;;;;;;;;;;;;;;;;5103825;27;19927;-77
2024/01/02 05:55:38;;;;;;;;;;;;;;;;;;5101023;27;20321;-76
2024/01/02 05:58:04;;;;;;;;;;;;;;;;;;5122832;27;19928;-78
2024/01/02 06:00:31;;;;;;;;;;;;;;;;;;5118059;27;19923;-80
2024/01/02 06:02:58;;;;;;;;;;;;;;;;;;5100507;27;20372;-76
2024/01/02 06:05:24;;;;;;;;;;;;;;;;;;5120650;27;19927;-76
2024/01/02 06:07:51;;;;;;;;;;;;;;;;;;5101206;28;19931;-74
2024/01/02 06:10:17;;;;;;;;;;;;;;;;;;5088227;27;19924;-75
2024/01/02 06:12:43;;;;;;;;;;;;;;;;;;5099446;27;19976;-76
2024/01/02 06:15:10;;;;;;;;;;;;;;;;;;5103781;27;19923;-76
2024/01/02 06:17:36;;;;;;;;;;;;;;;;;;5110042;27;19969;-77
2024/01/02 06:20:04;;;;;;;;;;;;;;;;;;5097986;28;20398;-75
2024/01/02 06:22:30;;;;;;;;;;;;;;;;;;5097078;28;20837;-77
2024/01/02 06:24:57;;;;;;;;;;;;;;;;;;5103967;28;20006;-75
2024/01/02 06:27:23;;;;;;;;;;;;;;;;;;5125453;27;19964;-78
2024/01/02 06:29:50;;;;;;;;;;;;;;;;;;5105647;27;20337;-77
2024/01/02 06:32:16;;;;;;;;;;;;;;;;;;5099494;28;19970;-76
2024/01/02 06:34:43;;;;;;;;;;;;;;;;;;5083134;27;19924;-76
2024/01/02 06:37:09;;;;;;;;;;;;;;;;;;5117981;27;19939;-76
2024/01/02 06:39:36;;;;;;;;;;;;;;;;;;5115696;27;20277;-76
2024/01/02 06:42:03;;;;;;;;;;;;;;;;;;5083200;27;19931;-77
2024/01/02 06:44:29;;;;;;;;;;;;;;;;;;5124334;27;19977;-78
2024/01/02 06:46:56;;;;;;;;;;;;;;;;;;5102191;27;20353;-78
2024/01/02 06:49:24;;;;;;;;;;;;;;;;;;5092752;28;20002;-78
2024/01/02 06:51:51;;;;;;;;;;;;;;;;;;5118930;27;20295;-76
2024/01/02 06:54:17;;;;;;;;;;;;;;;;;;5098014;28;19931;-77
2024/01/02 06:56:43;;;;;;;;;;;;;;;;;;5117315;27;19928;-77
2024/01/02 06:59:10;;;;;;;;;;;;;;;;;;5107862;27;19932;-79
2024/01/02 07:01:36;;;;;;;;;;;;;;;;;;5105329;28;19930;-79
2024/01/02 07:04:03;;;;;;;;;;;;;;;;;;5102125;27;20044;-77
2024/01/02 07:06:29;;;;;;;;;;;;;;;;;;5099138;28;19943;-80
2024/01/02 07:08:56;;;;;;;;;;;;;;;;;;5102407;27;20002;-79
2024/01/02 07:11:22;;;;;;;;;;;;;;;;;;5120312;27;19923;-78
2024/01/02 07:13:49;;;;;;;;;;;;;;;;;;5118432;27;19931;-80
2024/01/02 07:16:15;;;;;;;;;;;;;;;;;;5098479;27;19958;-76
2024/01/02 07:18:41;;;;;;;;;;;;;;;;;;5099598;28;19924;-79
2024/01/02 07:21:08;;;;;;;;;;;;;;;;;;5100131;28;19931;-79
2024/01/02 07:23:37;;;;;;;;;;;;;;;;;;5102595;27;19989;-79
2024/01/02 07:26:04;;;;;;;;;;;;;;;;;;5080735;28;19959;-80
2024/01/02 07:28:30;;;;;;;;;;;;;;;;;;5103155;28;20310;-79
2024/01/02 07:30:57;;;;;;;;;;;;;;;;;;5117848;27;20011;-82
2024/01/02 07:33:24;;;;;;;;;;;;;;;;;;5124885;27;19963;-81
2024/01/02 07:35:56;;;;;;;;;;;;;;;;;;5104103;27;19932;-80
2024/01/02 07:38:26;;;;;;;;;;;;;;;;;;5107263;28;19931;-81
2024/01/02 07:40:55;;;;;;;;;;;;;;;;;;5084529;28;19924;-80
2024/01/02 07:43:28;;;;;;;;;;;;;;;;;;5081122;28;19970;-80
2024/01/02 07:45:55;;;;;;;;;;;;;;;;;;5126166;27;19923;-80
2024/01/02 07:48:22;;;;;;;;;;;;;;;;;;5119424;28;19924;-80
2024/01/02 07:50:56;;;;;;;;;;;;;;;;;;5110700;28;19924;-82
2024/01/02 07:53:25;;;;;;;;;;;;;;;;;;5130240;27;19959;-78
2024/01/02 07:55:51;;;;;;;;;;;;;;;;;;5107509;27;20010;-79
2024/01/02 07:58:17;;;;;;;;;;;;;;;;;;5109544;27;19974;-79
2024/01/02 08:00:45;;;;;;;;;;;;;;;;;;5111882;27;19923;-81
2024/01/02 08:03:14;;;;;;;;;;;;;;;;;;5108615;27;19923;-81
2024/01/02 08:05:41;;;;;;;;;;;;;;;;;;5105142;28;19939;-82
2024/01/02 08:08:07;;;;;;;;;;;;;;;;;;5111904;27;19946;-81
2024/01/02 08:10:34;;;;;;;;;;;;;;;;;;5124665;27;19931;-81
2024/01/02 08:13:00;;;;;;;;;;;;;;;;;;5125087;27;19987;-81
2024/01/02 08:15:30;;;;;;;;;;;;;;;;;;5127445;27;19957;-82
2024/01/02 08:18:03;;;;;;;;;;;;;;;;;;5096618;28;19938;-80
2024/01/02 08:20:30;;;;;;;;;;;;;;;;;;5094698;28;19924;-80
2024/01/02 08:22:57;;;;;;;;;;;;;;;;;;5127282;27;19923;-81
2024/01/02 08:25:23;;;;;;;;;;;;;;;;;;5110793;28;19935;-80
2024/01/02 08:27:50;;;;;;;;;;;;;;;;;;5111177;28;19924;-80
2024/01/02 08:30:18;;;;;;;;;;;;;;;;;;5122294;28;20414;-81
2024/01/02 08:32:45;;;;;;;;;;;;;;;;;;5106043;28;19924;-81
2024/01/02 08:35:16;;;;;;;;;;;;;;;;;;5130883;27;19945;-80
2024/01/02 08:37:43;;;;;;;;;;;;;;;;;;5111769;28;19924;-81
2024/01/02 08:40:09;;;;;;;;;;;;;;;;;;5115744;28;19981;-81
2024/01/02 08:42:37;;;;;;;;;;;;;;;;;;5092425;27;19931;-79
2024/01/02 08:45:05;;;;;;;;;;;;;;;;;;5104870;27;19931;-80
2024/01/02 08:47:32;;;;;;;;;;;;;;;;;;5095281;28;19924;-81
2024/01/02 08:49:58;;;;;;;;;;;;;;;;;;5101480;27;20378;-81
2024/01/02 08:52:26;;;;;;;;;;;;;;;;;;5106365;28;19924;-79
2024/01/02 08:54:52;;;;;;;;;;;;;;;;;;5087149;28;19975;-80
2024/01/02 08:57:19;;;;;;;;;;;;;;;;;;5085239;28;19927;-78
2024/01/02 08:59:45;;;;;;;;;;;;;;;;;;5106836;27;19923;-81
2024/01/02 09:02:12;;;;;;;;;;;;;;;;;;5108016;27;19928;-81
2024/01/02 09:04:39;;;;;;;;;;;;;;;;;;5083793;28;19927;-79
2024/01/02 09:07:05;;;;;;;;;;;;;;;;;;5111377;28;20384;-80
2024/01/02 09:09:32;;;;;;;;;;;;;;;;;;5081780;28;19963;-81
2024/01/02 09:11:59;;;;;;;;;;;;;;;;;;5102436;27;19927;-80
2024/01/02 09:14:25;;;;;;;;;;;;;;;;;;5104728;28;20068;-79
2024/01/02 09:16:52;;;;;;;;;;;;;;;;;;5096562;28;19938;-81
2024/01/02 09:19:19;;;;;;;;;;;;;;;;;;5116054;27;20018;-80
2024/01/02 09:21:45;;;;;;;;;;;;;;;;;;5106172;27;19973;-81
2024/01/02 09:24:12;;;;;;;;;;;;;;;;;;5088291;28;19924;-80
2024/01/02 09:26:38;;;;;;;;;;;;;;;;;;5104796;28;20436;-80
2024/01/02 09:29:05;;;;;;;;;;;;;;;;;;5082436;28;19924;-81
2024/01/02 09:31:31;;;;;;;;;;;;;;;;;;5079548;28;19927;-81
2024/01/02 09:33:58;;;;;;;;;;;;;;;;;;5100930;28;19923;-80
2024/01/02 09:36:24;;;;;;;;;;;;;;;;;;5122159;28;19969;-81
2024/01/02 09:38:51;;;;;;;;;;;;;;;;;;5085793;28;19923;-80
2024/01/02 09:41:17;;;;;;;;;;;;;;;;;;5098868;28;19924;-81
2024/01/02 09:43:44;;;;;;;;;;;;;;;;;;5080562;28;19992;-80
2024/01/02 09:46:11;;;;;;;;;;;;;;;;;;5099649;28;19928;-80
2024/01/02 09:48:38;;;;;;;;;;;;;;;;;;5082574;28;19938;-81
2024/01/02 09:51:05;;;;;;;;;;;;;;;;;;5116680;28;19924;-81
2024/01/02 09:53:31;;;;;;;;;;;;;;;;;;5098662;28;19923;-80
2024/01/02 09:55:58;;;;;;;;;;;;;;;;;;5097008;28;20038;-81
2024/01/02 09:58:24;;;;;;;;;;;;;;;;;;5118988;28;19928;-80
2024/01/02 10:00:51;;;;;;;;;;;;;;;;;;5119080;28;20022;-80
2024/01/02 10:03:17;;;;;;;;;;;;;;;;;;5099385;28;19928;-80
2024/01/02 10:05:44;;;;;;;;;;;;;;;;;;5097547;28;19930;-80
2024/01/02 10:08:11;;;;;;;;;;;;;;;;;;5082736;28;19930;-80
2024/01/02 10:10:37;;;;;;;;;;;;;;;;;;5097152;28;19934;-81
2024/01/02 10:13:04;;;;;;;;;;;;;;;;;;5100682;28;19945;-80
2024/01/02 10:15:31;;;;;;;;;;;;;;;;;;5099174;28;20338;-80
2024/01/02 10:17:58;;;;;;;;;;;;;;;;;;5114420;28;19962;-81
2024/01/02 10:20:25;;;;;;;;;;;;;;;;;;5119713;28;19923;-80
2024/01/02 10:22:51;;;;;;;;;;;;;;;;;;5126446;27;20032;-81
2024/01/02 10:25:18;;;;;;;;;;;;;;;;;;5117766;27;20015;-80
2024/01/02 10:27:44;;;;;;;;;;;;;;;;;;5102376;28;20284;-80
2024/01/02 10:30:11;;;;;;;;;;;;;;;;;;5108724;27;20291;-81
2024/01/02 10:32:37;;;;;;;;;;;;;;;;;;5101136;28;19927;-80
2024/01/02 10:35:05;;;;;;;;;;;;;;;;;;5101316;28;19927;-81
2024/01/02 10:37:31;;;;;;;;;;;;;;;;;;5099218;28;19946;-81
2024/01/02 10:39:58;;;;;;;;;;;;;;;;;;5087024;28;19955;-80
2024/01/02 10:42:24;;;;;;;;;;;;;;;;;;5101324;28;19931;-80
2024/01/02 10:44:52;;;;;;;;;;;;;;;;;;5125418;27;20379;-79
2024/01/02 10:47:18;;;;;;;;;;;;;;;;;;5101632;27;19924;-81
2024/01/02 10:49:45;;;;;;;;;;;;;;;;;;5122986;27;19984;-81
2024/01/02 10:52:13;;;;;;;;;;;;;;;;;;5117490;27;19928;-80
2024/01/02 10:54:40;;;;;;;;;;;;;;;;;;5105871;28;20016;-81
2024/01/02 10:57:07;;;;;;;;;;;;;;;;;;5120337;27;20018;-81
2024/01/02 10:59:36;;;;;;;;;;;;;;;;;;5105137;27;19924;-81
2024/01/02 11:02:03;;;;;;;;;;;;;;;;;;5122718;27;20414;-81
2024/01/02 11:04:31;;;;;;;;;;;;;;;;;;5092279;27;19970;-80
2024/01/02 11:06:58;;;;;;;;;;;;;;;;;;5118359;27;19924;-81
2024/01/02 11:09:27;;;;;;;;;;;;;;;;;;5099530;28;20300;-78
2024/01/02 11:11:53;;;;;;;;;;;;;;;;;;5100968;27;19930;-79
2024/01/02 11:14:31;;;;;;;;;;;;;;;;;;5104367;27;20032;-79
2024/01/02 11:16:58;;;;;;;;;;;;;;;;;;5104273;27;20011;-80
2024/01/02 11:19:24;;;;;;;;;;;;;;;;;;5096755;27;20395;-79
2024/01/02 11:21:50;;;;;;;;;;;;;;;;;;5119827;27;19928;-80
2024/01/02 11:24:17;;;;;;;;;;;;;;;;;;5106065;27;19927;-80
2024/01/02 11:26:44;;;;;;;;;;;;;;;;;;5118667;27;20010;-81
2024/01/02 11:29:11;;;;;;;;;;;;;;;;;;5124944;27;20444;-80
2024/01/02 11:31:37;;;;;;;;;;;;;;;;;;5115431;27;19924;-80
2024/01/02 11:34:04;;;;;;;;;;;;;;;;;;5100255;28;19934;-80
2024/01/02 11:36:30;;;;;;;;;;;;;;;;;;5099687;28;20010;-79
2024/01/02 11:38:57;;;;;;;;;;;;;;;;;;5097729;27;19947;-79
2024/01/02 11:41:23;;;;;;;;;;;;;;;;;;5098836;28;19957;-77
2024/01/02 11:43:50;;;;;;;;;;;;;;;;;;5100258;28;19938;-80
2024/01/02 11:46:16;;;;;;;;;;;;;;;;;;5094177;27;20299;-81
2024/01/02 11:48:43;;;;;;;;;;;;;;;;;;5099453;28;19934;-77
2024/01/02 11:51:09;;;;;;;;;;;;;;;;;;5119198;27;19927;-80
2024/01/02 11:53:36;;;;;;;;;;;;;;;;;;5082220;27;20007;-79
2024/01/02 11:56:03;;;;;;;;;;;;;;;;;;5098927;28;19996;-78
2024/01/02 11:58:30;;;;;;;;;;;;;;;;;;5098307;28;19933;-76
2024/01/02 12:00:56;;;;;;;;;;;;;;;;;;5114367;27;20010;-77
2024/01/02 12:03:23;;;;;;;;;;;;;;;;;;5117126;27;19939;-77
2024/01/02 12:05:49;;;;;;;;;;;;;;;;;;5095966;28;19927;-78
2024/01/02 12:08:15;;;;;;;;;;;;;;;;;;5095240;28;19931;-75
2024/01/02 12:10:47;;;;;;;;;;;;;;;;;;5086622;27;19923;-78
2024/01/02 12:13:13;;;;;;;;;;;;;;;;;;5094554;27;19930;-78
2024/01/02 12:15:40;;;;;;;;;;;;;;;;;;5113374;27;19928;-75
2024/01/02 12:18:06;;;;;;;;;;;;;;;;;;5086997;27;19976;-77
2024/01/02 12:20:33;;;;;;;;;;;;;;;;;;5099836;27;19976;-78
2024/01/02 12:23:00;;;;;;;;;;;;;;;;;;5095921;27;20311;-76
2024/01/02 12:25:27;;;;;;;;;;;;;;;;;;5077977;28;20720;-77
2024/01/02 12:27:53;;;;;;;;;;;;;;;;;;5102003;27;19969;-75
2024/01/02 12:30:19;;;;;;;;;;;;;;;;;;5116085;27;20354;-75
2024/01/02 12:32:46;;;;;;;;;;;;;;;;;;5114616;27;19973;-76
2024/01/02 12:35:12;;;;;;;;;;;;;;;;;;5120236;27;20312;-74
2024/01/02 12:37:39;;;;;;;;;;;;;;;;;;5122655;27;19931;-73
2024/01/02 12:40:05;;;;;;;;;;;;;;;;;;5097132;28;19927;-75
2024/01/02 12:42:32;;;;;;;;;;;;;;;;;;5096727;27;20015;-75
2024/01/02 12:44:58;;;;;;;;;;;;;;;;;;5114611;27;19932;-74
2024/01/02 12:47:25;;;;;;;;;;;;;;;;;;5099692;27;19923;-77
2024/01/02 12:49:51;;;;;;;;;;;;;;;;;;5101360;28;20010;-76
2024/01/02 12:52:20;;;;;;;;;;;;;;;;;;5119268;27;19951;-76
2024/01/02 12:54:47;;;;;;;;;;;;;;;;;;5106576;27;19937;-75
2024/01/02 12:57:14;;;;;;;;;;;;;;;;;;5115925;27;19924;-75
2024/01/02 12:59:40;;;;;;;;;;;;;;;;;;5106909;27;19930;-76
2024/01/02 13:02:07;;;;;;;;;;;;;;;;;;5101538;28;19974;-76
2024/01/02 13:04:35;;;;;;;;;;;;;;;;;;5099763;28;19930;-76
2024/01/02 13:07:02;;;;;;;;;;;;;;;;;;5117823;27;19932;-77
2024/01/02 13:09:28;;;;;;;;;;;;;;;;;;5122845;27;19923;-77
2024/01/02 13:11:54;;;;;;;;;;;;;;;;;;5118270;28;19923;-78
2024/01/02 13:14:21;;;;;;;;;;;;;;;;;;5117285;27;20352;-75
2024/01/02 13:16:47;;;;;;;;;;;;;;;;;;5098623;28;19931;-79
2024/01/02 13:19:14;;;;;;;;;;;;;;;;;;5095483;28;19928;-75
2024/01/02 13:21:40;;;;;;;;;;;;;;;;;;5098981;28;19972;-78
2024/01/02 13:24:09;;;;;;;;;;;;;;;;;;5098064;28;19930;-75
2024/01/02 13:26:35;;;;;;;;;;;;;;;;;;5095795;28;19970;-76
2024/01/02 13:29:01;;;;;;;;;;;;;;;;;;5100560;28;19923;-76
2024/01/02 13:31:28;;;;;;;;;;;;;;;;;;5096459;28;19928;-76
2024/01/02 13:33:54;;;;;;;;;;;;;;;;;;5118464;28;19927;-77
2024/01/02 13:36:21;;;;;;;;;;;;;;;;;;5097862;28;19931;-75
2024/01/02 13:38:48;;;;;;;;;;;;;;;;;;5096899;28;19931;-76
2024/01/02 13:41:14;;;;;;;;;;;;;;;;;;5112694;28;19931;-76
2024/01/02 13:43:41;;;;;;;;;;;;;;;;;;5099528;28;19935;-76
2024/01/02 13:46:07;;;;;;;;;;;;;;;;;;5081230;28;19935;-76
2024/01/02 13:48:33;;;;;;;;;;;;;;;;;;5114195;28;19927;-76
2024/01/02 13:51:00;;;;;;;;;;;;;;;;;;5117538;28;19928;-76
2024/01/02 13:53:27;;;;;;;;;;;;;;;;;;5079412;28;20292;-74
2024/01/02 13:55:53;;;;;;;;;;;;;;;;;;5116850;28;19924;-76
2024/01/02 13:58:19;;;;;;;;;;;;;;;;;;5098345;28;19934;-76
2024/01/02 14:00:46;;;;;;;;;;;;;;;;;;5118750;27;19928;-76
2024/01/02 14:03:16;;;;;;;;;;;;;;;;;;5106861;27;20022;-77
2024/01/02 14:05:45;;;;;;;;;;;;;;;;;;5097853;27;19923;-76
2024/01/02 14:08:11;;;;;;;;;;;;;;;;;;5099999;27;20075;-76
2024/01/02 14:10:38;;;;;;;;;;;;;;;;;;5118309;27;19931;-76
2024/01/02 14:13:05;;;;;;;;;;;;;;;;;;5117810;27;19938;-78
2024/01/02 14:15:32;;;;;;;;;;;;;;;;;;5100234;28;19935;-76
2024/01/02 14:17:58;;;;;;;;;;;;;;;;;;5119505;27;20019;-76
2024/01/02 14:20:25;;;;;;;;;;;;;;;;;;5098646;28;19931;-77
2024/01/02 14:22:52;;;;;;;;;;;;;;;;;;5109206;27;19931;-75
2024/01/02 14:25:19;;;;;;;;;;;;;;;;;;5087809;27;19931;-75
2024/01/02 14:27:45;;;;;;;;;;;;;;;;;;5102880;28;20348;-77
2024/01/02 14:30:12;;;;;;;;;;;;;;;;;;5103587;27;19932;-76
2024/01/02 14:32:39;;;;;;;;;;;;;;;;;;5115159;27;19924;-78
2024/01/02 14:35:05;;;;;;;;;;;;;;;;;;5121099;27;19924;-76
2024/01/02 14:37:32;;;;;;;;;;;;;;;;;;5121539;27;19927;-74
2024/01/02 14:39:58;;;;;;;;;;;;;;;;;;5085102;28;20733;-78
2024/01/02 14:42:24;;;;;;;;;;;;;;;;;;5097114;28;19923;-77
2024/01/02 14:44:51;;;;;;;;;;;;;;;;;;5083502;27;20027;-77
2024/01/02 14:47:17;;;;;;;;;;;;;;;;;;5120171;27;20399;-77
2024/01/02 14:49:44;;;;;;;;;;;;;;;;;;5102581;27;19924;-78
2024/01/02 14:52:10;;;;;;;;;;;;;;;;;;5096561;28;20035;-76
2024/01/02 14:54:36;;;;;;;;;;;;;;;;;;5120809;27;20014;-76
2024/01/02 14:57:03;;;;;;;;;;;;;;;;;;5101412;27;19951;-77
2024/01/02 14:59:29;;;;;;;;;;;;;;;;;;5099685;27;20029;-78
2024/01/02 15:01:56;;;;;;;;;;;;;;;;;;5114626;27;19924;-76
2024/01/02 15:04:22;;;;;;;;;;;;;;;;;;5120179;27;20276;-77
2024/01/02 15:06:49;;;;;;;;;;;;;;;;;;5102713;27;19966;-76
2024/01/02 15:09:15;;;;;;;;;;;;;;;;;;5099499;27;19924;-78
2024/01/02 15:11:42;;;;;;;;;;;;;;;;;;5097591;28;19947;-79
2024/01/02 15:14:08;;;;;;;;;;;;;;;;;;5118021;27;20502;-77
2024/01/02 15:16:35;;;;;;;;;;;;;;;;;;5122001;27;20309;-77
2024/01/02 15:19:04;;;;;;;;;;;;;;;;;;5099753;28;19931;-77
2024/01/02 15:21:30;;;;;;;;;;;;;;;;;;5100297;27;19932;-77
2024/01/02 15:23:57;;;;;;;;;;;;;;;;;;5099453;27;19935;-77
2024/01/02 15:26:23;;;;;;;;;;;;;;;;;;5105162;27;19927;-77
2024/01/02 15:28:50;;;;;;;;;;;;;;;;;;5122052;27;19927;-77
2024/01/02 15:31:17;;;;;;;;;;;;;;;;;;5097782;28;20022;-78
2024/01/02 15:33:43;;;;;;;;;;;;;;;;;;5095084;27;19931;-77
2024/01/02 15:36:10;;;;;;;;;;;;;;;;;;5101778;27;19931;-76
2024/01/02 15:38:37;;;;;;;;;;;;;;;;;;5084339;27;19923;-77
2024/01/02 15:41:03;;;;;;;;;;;;;;;;;;5115733;27;19931;-77
2024/01/02 15:43:29;;;;;;;;;;;;;;;;;;5100526;28;19924;-78
2024/01/02 15:45:56;;;;;;;;;;;;;;;;;;5113532;27;20032;-77
2024/01/02 15:48:22;;;;;;;;;;;;;;;;;;5098215;27;19995;-77
2024/01/02 15:50:49;;;;;;;;;;;;;;;;;;5105770;27;20022;-75
2024/01/02 15:53:15;;;;;;;;;;;;;;;;;;5119252;27;19923;-76
2024/01/02 15:55:42;;;;;;;;;;;;;;;;;;5125501;27;19951;-77
2024/01/02 15:58:08;;;;;;;;;;;;;;;;;;5105378;27;19970;-77
2024/01/02 16:00:35;;;;;;;;;;;;;;;;;;5100722;27;20296;-77
2024/01/02 16:03:01;;;;;;;;;;;;;;;;;;5119077;27;20014;-76
2024/01/02 16:05:28;;;;;;;;;;;;;;;;;;5096298;27;20015;-77
2024/01/02 16:07:55;;;;;;;;;;;;;;;;;;5105166;28;19931;-77
2024/01/02 16:10:22;;;;;;;;;;;;;;;;;;5100727;27;19966;-77
2024/01/02 16:12:48;;;;;;;;;;;;;;;;;;5117516;27;20031;-77
2024/01/02 16:15:15;;;;;;;;;;;;;;;;;;5097698;28;19924;-75
2024/01/02 16:17:41;;;;;;;;;;;;;;;;;;5118468;27;19962;-77
2024/01/02 16:20:07;;;;;;;;;;;;;;;;;;5077536;28;20284;-76
2024/01/02 16:22:34;;;;;;;;;;;;;;;;;;5084092;27;19969;-77
2024/01/02 16:25:00;;;;;;;;;;;;;;;;;;5079834;28;19923;-79
2024/01/02 16:27:27;;;;;;;;;;;;;;;;;;5099417;27;19927;-76
2024/01/02 16:29:53;;;;;;;;;;;;;;;;;;5119988;27;19932;-77
2024/01/02 16:32:20;;;;;;;;;;;;;;;;;;5081195;28;20014;-78
2024/01/02 16:34:46;;;;;;;;;;;;;;;;;;5101334;28;19924;-75
2024/01/02 16:37:13;;;;;;;;;;;;;;;;;;5096143;27;19928;-78
2024/01/02 16:39:39;;;;;;;;;;;;;;;;;;5086060;27;20039;-77
2024/01/02 16:42:06;;;;;;;;;;;;;;;;;;5117130;27;20396;-77